sensor_id;sensor_type;location;lat;lon;timestamp;P1;durP1;ratioP1;P2;durP2;ratioP2
61096;SDS011;46977;50.936;6.908;2023-10-09T00:01:37;16.20;;;9.05;;
61096;SDS011;46977;50.936;6.908;2023-10-09T00:04:41;18.92;;;10.45;;
61096;SDS011;46977;50.936;6.908;2023-10-09T00:07:46;19.27;;;10.07;;
61096;SDS011;46977;50.936;6.908;2023-10-09T00:10:49;19.88;;;9.63;;
61096;SDS011;46977;50.936;6.908;2023-10-09T00:13:55;15.48;;;9.10;;
61096;SDS011;46977;50.936;6.908;2023-10-09T00:17:02;18.27;;;8.85;;
61096;SDS011;46977;50.936;6.908;2023-10-09T00:20:13;18.67;;;9.60;;
61096;SDS011;46977;50.936;6.908;2023-10-09T00:23:28;16.48;;;9.55;;
61096;SDS011;46977;50.936;6.908;2023-10-09T00:26:33;16.27;;;7.72;;
61096;SDS011;46977;50.936;6.908;2023-10-09T00:29:45;14.85;;;7.80;;
61096;SDS011;46977;50.936;6.908;2023-10-09T00:32:47;21.45;;;10.30;;
61096;SDS011;46977;50.936;6.908;2023-10-09T00:36:02;16.48;;;8.68;;
61096;SDS011;46977;50.936;6.908;2023-10-09T00:39:13;21.35;;;9.30;;
61096;SDS011;46977;50.936;6.908;2023-10-09T00:42:22;18.92;;;9.85;;
61096;SDS011;46977;50.936;6.908;2023-10-09T00:45:36;17.08;;;8.77;;
61096;SDS011;46977;50.936;6.908;2023-10-09T00:48:41;15.18;;;8.40;;
61096;SDS011;46977;50.936;6.908;2023-10-09T00:51:45;19.27;;;9.25;;
61096;SDS011;46977;50.936;6.908;2023-10-09T00:55:02;16.15;;;8.75;;
61096;SDS011;46977;50.936;6.908;2023-10-09T00:58:16;17.17;;;9.00;;
61096;SDS011;46977;50.936;6.908;2023-10-09T01:01:26;15.57;;;8.98;;
61096;SDS011;46977;50.936;6.908;2023-10-09T01:04:36;18.15;;;9.45;;
61096;SDS011;46977;50.936;6.908;2023-10-09T01:07:45;18.38;;;8.07;;
61096;SDS011;46977;50.936;6.908;2023-10-09T01:10:50;14.65;;;8.63;;
61096;SDS011;46977;50.936;6.908;2023-10-09T01:13:58;14.40;;;7.97;;
61096;SDS011;46977;50.936;6.908;2023-10-09T01:17:09;17.70;;;8.52;;
61096;SDS011;46977;50.936;6.908;2023-10-09T01:20:12;16.13;;;8.68;;
61096;SDS011;46977;50.936;6.908;2023-10-09T01:23:20;17.38;;;9.55;;
61096;SDS011;46977;50.936;6.908;2023-10-09T01:26:22;15.95;;;7.50;;
61096;SDS011;46977;50.936;6.908;2023-10-09T01:29:25;11.70;;;8.13;;
61096;SDS011;46977;50.936;6.908;2023-10-09T01:32:31;17.83;;;9.68;;
61096;SDS011;46977;50.936;6.908;2023-10-09T01:35:33;15.80;;;8.88;;
61096;SDS011;46977;50.936;6.908;2023-10-09T01:38:37;19.75;;;8.82;;
61096;SDS011;46977;50.936;6.908;2023-10-09T01:41:43;16.67;;;8.45;;
61096;SDS011;46977;50.936;6.908;2023-10-09T01:44:48;13.88;;;8.30;;
61096;SDS011;46977;50.936;6.908;2023-10-09T01:47:50;15.52;;;8.38;;
61096;SDS011;46977;50.936;6.908;2023-10-09T01:51:00;17.63;;;9.07;;
61096;SDS011;46977;50.936;6.908;2023-10-09T01:54:08;14.20;;;8.57;;
61096;SDS011;46977;50.936;6.908;2023-10-09T01:57:12;14.93;;;8.48;;
61096;SDS011;46977;50.936;6.908;2023-10-09T02:00:15;18.15;;;8.15;;
61096;SDS011;46977;50.936;6.908;2023-10-09T02:03:24;16.83;;;8.23;;
61096;SDS011;46977;50.936;6.908;2023-10-09T02:06:28;13.38;;;7.78;;
61096;SDS011;46977;50.936;6.908;2023-10-09T02:09:35;13.55;;;7.90;;
61096;SDS011;46977;50.936;6.908;2023-10-09T02:12:46;14.32;;;8.27;;
61096;SDS011;46977;50.936;6.908;2023-10-09T02:15:49;14.30;;;8.52;;
61096;SDS011;46977;50.936;6.908;2023-10-09T02:18:55;14.65;;;7.57;;
61096;SDS011;46977;50.936;6.908;2023-10-09T02:21:58;12.23;;;6.82;;
61096;SDS011;46977;50.936;6.908;2023-10-09T02:25:03;13.02;;;7.43;;
61096;SDS011;46977;50.936;6.908;2023-10-09T02:28:07;12.70;;;7.22;;
61096;SDS011;46977;50.936;6.908;2023-10-09T02:31:10;15.55;;;8.57;;
61096;SDS011;46977;50.936;6.908;2023-10-09T02:34:14;17.50;;;7.40;;
61096;SDS011;46977;50.936;6.908;2023-10-09T02:37:22;13.05;;;7.85;;
61096;SDS011;46977;50.936;6.908;2023-10-09T02:40:28;14.30;;;8.38;;
61096;SDS011;46977;50.936;6.908;2023-10-09T02:43:35;15.88;;;7.43;;
61096;SDS011;46977;50.936;6.908;2023-10-09T02:46:46;13.15;;;6.93;;
61096;SDS011;46977;50.936;6.908;2023-10-09T02:49:49;13.90;;;7.13;;
61096;SDS011;46977;50.936;6.908;2023-10-09T02:52:53;14.45;;;7.47;;
61096;SDS011;46977;50.936;6.908;2023-10-09T02:56:04;15.48;;;6.90;;
61096;SDS011;46977;50.936;6.908;2023-10-09T02:59:16;10.65;;;6.38;;
61096;SDS011;46977;50.936;6.908;2023-10-09T03:02:18;14.35;;;7.45;;
61096;SDS011;46977;50.936;6.908;2023-10-09T03:05:21;11.88;;;7.03;;
61096;SDS011;46977;50.936;6.908;2023-10-09T03:08:23;13.48;;;7.50;;
61096;SDS011;46977;50.936;6.908;2023-10-09T03:11:26;10.95;;;7.38;;
61096;SDS011;46977;50.936;6.908;2023-10-09T03:14:29;13.48;;;7.30;;
61096;SDS011;46977;50.936;6.908;2023-10-09T03:17:32;9.88;;;6.60;;
61096;SDS011;46977;50.936;6.908;2023-10-09T03:20:36;10.52;;;6.13;;
61096;SDS011;46977;50.936;6.908;2023-10-09T03:23:39;12.43;;;6.68;;
61096;SDS011;46977;50.936;6.908;2023-10-09T03:26:43;13.80;;;6.60;;
61096;SDS011;46977;50.936;6.908;2023-10-09T03:29:47;10.32;;;5.53;;
61096;SDS011;46977;50.936;6.908;2023-10-09T03:32:55;12.02;;;6.63;;
61096;SDS011;46977;50.936;6.908;2023-10-09T03:35:58;11.50;;;6.57;;
61096;SDS011;46977;50.936;6.908;2023-10-09T03:39:01;13.52;;;6.60;;
61096;SDS011;46977;50.936;6.908;2023-10-09T03:42:11;12.88;;;6.82;;
61096;SDS011;46977;50.936;6.908;2023-10-09T03:45:22;14.23;;;6.57;;
61096;SDS011;46977;50.936;6.908;2023-10-09T03:48:28;11.45;;;6.32;;
61096;SDS011;46977;50.936;6.908;2023-10-09T03:51:34;13.82;;;7.10;;
61096;SDS011;46977;50.936;6.908;2023-10-09T03:54:36;12.43;;;6.57;;
61096;SDS011;46977;50.936;6.908;2023-10-09T03:57:41;15.02;;;6.30;;
61096;SDS011;46977;50.936;6.908;2023-10-09T04:00:47;11.45;;;7.00;;
61096;SDS011;46977;50.936;6.908;2023-10-09T04:03:51;8.88;;;6.18;;
61096;SDS011;46977;50.936;6.908;2023-10-09T04:06:57;11.50;;;5.97;;
61096;SDS011;46977;50.936;6.908;2023-10-09T04:09:59;10.88;;;5.75;;
61096;SDS011;46977;50.936;6.908;2023-10-09T04:13:26;12.27;;;6.03;;
61096;SDS011;46977;50.936;6.908;2023-10-09T04:16:35;12.53;;;6.53;;
61096;SDS011;46977;50.936;6.908;2023-10-09T04:19:53;8.68;;;5.55;;
61096;SDS011;46977;50.936;6.908;2023-10-09T04:23:13;11.13;;;6.18;;
61096;SDS011;46977;50.936;6.908;2023-10-09T04:26:18;11.18;;;5.82;;
61096;SDS011;46977;50.936;6.908;2023-10-09T04:29:24;9.35;;;5.55;;
61096;SDS011;46977;50.936;6.908;2023-10-09T04:32:29;13.77;;;6.78;;
61096;SDS011;46977;50.936;6.908;2023-10-09T04:35:33;10.77;;;6.05;;
61096;SDS011;46977;50.936;6.908;2023-10-09T04:38:35;10.50;;;5.72;;
61096;SDS011;46977;50.936;6.908;2023-10-09T04:41:39;10.98;;;6.15;;
61096;SDS011;46977;50.936;6.908;2023-10-09T04:44:45;10.82;;;5.47;;
61096;SDS011;46977;50.936;6.908;2023-10-09T04:48:06;9.20;;;5.90;;
61096;SDS011;46977;50.936;6.908;2023-10-09T04:51:09;9.88;;;5.38;;
61096;SDS011;46977;50.936;6.908;2023-10-09T04:54:23;8.20;;;5.00;;
61096;SDS011;46977;50.936;6.908;2023-10-09T04:57:41;10.82;;;5.55;;
61096;SDS011;46977;50.936;6.908;2023-10-09T05:00:45;11.55;;;5.65;;
61096;SDS011;46977;50.936;6.908;2023-10-09T05:04:04;9.68;;;5.28;;
61096;SDS011;46977;50.936;6.908;2023-10-09T05:07:21;9.13;;;5.47;;
61096;SDS011;46977;50.936;6.908;2023-10-09T05:10:42;9.43;;;5.53;;
61096;SDS011;46977;50.936;6.908;2023-10-09T05:14:05;9.70;;;5.45;;
61096;SDS011;46977;50.936;6.908;2023-10-09T05:17:15;10.45;;;6.13;;
61096;SDS011;46977;50.936;6.908;2023-10-09T05:20:19;10.48;;;5.10;;
61096;SDS011;46977;50.936;6.908;2023-10-09T05:23:28;10.50;;;6.55;;
61096;SDS011;46977;50.936;6.908;2023-10-09T05:26:31;10.82;;;4.82;;
61096;SDS011;46977;50.936;6.908;2023-10-09T05:29:52;8.80;;;5.22;;
61096;SDS011;46977;50.936;6.908;2023-10-09T05:33:25;8.45;;;5.20;;
61096;SDS011;46977;50.936;6.908;2023-10-09T05:36:30;9.98;;;5.22;;
61096;SDS011;46977;50.936;6.908;2023-10-09T05:39:34;8.00;;;4.85;;
61096;SDS011;46977;50.936;6.908;2023-10-09T05:42:44;9.38;;;4.50;;
61096;SDS011;46977;50.936;6.908;2023-10-09T05:45:47;8.00;;;4.68;;
61096;SDS011;46977;50.936;6.908;2023-10-09T05:49:12;10.35;;;4.95;;
61096;SDS011;46977;50.936;6.908;2023-10-09T05:52:23;10.27;;;5.32;;
61096;SDS011;46977;50.936;6.908;2023-10-09T05:55:54;8.75;;;4.43;;
61096;SDS011;46977;50.936;6.908;2023-10-09T05:59:15;8.60;;;5.05;;
61096;SDS011;46977;50.936;6.908;2023-10-09T06:02:36;7.80;;;4.75;;
61096;SDS011;46977;50.936;6.908;2023-10-09T06:06:04;7.68;;;4.70;;
61096;SDS011;46977;50.936;6.908;2023-10-09T06:09:08;7.78;;;4.50;;
61096;SDS011;46977;50.936;6.908;2023-10-09T06:12:18;9.02;;;4.65;;
61096;SDS011;46977;50.936;6.908;2023-10-09T06:15:56;9.25;;;5.18;;
61096;SDS011;46977;50.936;6.908;2023-10-09T06:19:17;10.98;;;5.57;;
61096;SDS011;46977;50.936;6.908;2023-10-09T06:22:23;12.02;;;5.18;;
61096;SDS011;46977;50.936;6.908;2023-10-09T06:25:37;8.27;;;4.43;;
61096;SDS011;46977;50.936;6.908;2023-10-09T06:28:41;10.98;;;5.10;;
61096;SDS011;46977;50.936;6.908;2023-10-09T06:31:51;9.32;;;4.43;;
61096;SDS011;46977;50.936;6.908;2023-10-09T06:35:07;7.88;;;4.88;;
61096;SDS011;46977;50.936;6.908;2023-10-09T06:38:21;6.30;;;4.80;;
61096;SDS011;46977;50.936;6.908;2023-10-09T06:41:24;10.90;;;5.20;;
61096;SDS011;46977;50.936;6.908;2023-10-09T06:44:47;9.80;;;5.18;;
61096;SDS011;46977;50.936;6.908;2023-10-09T06:47:54;9.43;;;5.70;;
61096;SDS011;46977;50.936;6.908;2023-10-09T06:51:29;8.35;;;5.35;;
61096;SDS011;46977;50.936;6.908;2023-10-09T06:54:33;9.45;;;4.93;;
61096;SDS011;46977;50.936;6.908;2023-10-09T06:57:39;7.93;;;4.57;;
61096;SDS011;46977;50.936;6.908;2023-10-09T07:00:51;6.30;;;4.13;;
61096;SDS011;46977;50.936;6.908;2023-10-09T07:03:56;6.78;;;4.55;;
61096;SDS011;46977;50.936;6.908;2023-10-09T07:07:12;7.75;;;4.35;;
61096;SDS011;46977;50.936;6.908;2023-10-09T07:10:19;8.70;;;4.28;;
61096;SDS011;46977;50.936;6.908;2023-10-09T07:13:31;9.65;;;4.40;;
61096;SDS011;46977;50.936;6.908;2023-10-09T07:16:38;8.45;;;4.32;;
61096;SDS011;46977;50.936;6.908;2023-10-09T07:19:41;45.05;;;10.20;;
61096;SDS011;46977;50.936;6.908;2023-10-09T07:22:44;305.52;;;40.05;;
61096;SDS011;46977;50.936;6.908;2023-10-09T07:26:03;97.30;;;15.52;;
61096;SDS011;46977;50.936;6.908;2023-10-09T07:29:20;116.03;;;20.27;;
61096;SDS011;46977;50.936;6.908;2023-10-09T07:32:25;85.30;;;18.80;;
61096;SDS011;46977;50.936;6.908;2023-10-09T07:35:30;78.38;;;14.05;;
61096;SDS011;46977;50.936;6.908;2023-10-09T07:38:59;41.83;;;8.95;;
61096;SDS011;46977;50.936;6.908;2023-10-09T07:42:05;23.52;;;7.25;;
61096;SDS011;46977;50.936;6.908;2023-10-09T07:45:35;41.22;;;9.90;;
61096;SDS011;46977;50.936;6.908;2023-10-09T07:48:37;48.65;;;10.95;;
61096;SDS011;46977;50.936;6.908;2023-10-09T07:51:55;26.58;;;8.63;;
61096;SDS011;46977;50.936;6.908;2023-10-09T07:55:00;16.85;;;6.28;;
61096;SDS011;46977;50.936;6.908;2023-10-09T07:58:09;18.33;;;7.53;;
61096;SDS011;46977;50.936;6.908;2023-10-09T08:01:14;13.48;;;6.35;;
61096;SDS011;46977;50.936;6.908;2023-10-09T08:04:37;23.88;;;11.05;;
61096;SDS011;46977;50.936;6.908;2023-10-09T08:07:40;19.70;;;7.65;;
61096;SDS011;46977;50.936;6.908;2023-10-09T08:11:12;12.05;;;6.18;;
61096;SDS011;46977;50.936;6.908;2023-10-09T08:14:35;13.40;;;7.65;;
61096;SDS011;46977;50.936;6.908;2023-10-09T08:17:37;8.98;;;5.38;;
61096;SDS011;46977;50.936;6.908;2023-10-09T08:20:40;10.82;;;5.35;;
61096;SDS011;46977;50.936;6.908;2023-10-09T08:24:00;13.35;;;5.50;;
61096;SDS011;46977;50.936;6.908;2023-10-09T08:27:07;12.85;;;5.22;;
61096;SDS011;46977;50.936;6.908;2023-10-09T08:33:35;11.27;;;4.75;;
61096;SDS011;46977;50.936;6.908;2023-10-09T08:36:48;14.93;;;4.88;;
61096;SDS011;46977;50.936;6.908;2023-10-09T08:39:54;10.02;;;5.38;;
61096;SDS011;46977;50.936;6.908;2023-10-09T08:42:57;10.25;;;4.32;;
61096;SDS011;46977;50.936;6.908;2023-10-09T08:46:04;10.00;;;4.57;;
61096;SDS011;46977;50.936;6.908;2023-10-09T08:49:08;7.80;;;4.10;;
61096;SDS011;46977;50.936;6.908;2023-10-09T08:52:12;9.95;;;3.67;;
61096;SDS011;46977;50.936;6.908;2023-10-09T08:55:15;7.82;;;3.75;;
61096;SDS011;46977;50.936;6.908;2023-10-09T08:58:20;12.02;;;4.32;;
61096;SDS011;46977;50.936;6.908;2023-10-09T09:01:26;12.35;;;4.65;;
61096;SDS011;46977;50.936;6.908;2023-10-09T09:04:35;5.75;;;4.05;;
61096;SDS011;46977;50.936;6.908;2023-10-09T09:07:42;9.63;;;4.65;;
61096;SDS011;46977;50.936;6.908;2023-10-09T09:10:44;6.25;;;3.70;;
61096;SDS011;46977;50.936;6.908;2023-10-09T09:14:00;7.57;;;3.75;;
61096;SDS011;46977;50.936;6.908;2023-10-09T09:17:14;9.85;;;4.50;;
61096;SDS011;46977;50.936;6.908;2023-10-09T09:20:32;9.68;;;4.38;;
61096;SDS011;46977;50.936;6.908;2023-10-09T09:23:40;6.80;;;3.67;;
61096;SDS011;46977;50.936;6.908;2023-10-09T09:26:57;6.68;;;3.95;;
61096;SDS011;46977;50.936;6.908;2023-10-09T09:30:21;7.35;;;4.20;;
61096;SDS011;46977;50.936;6.908;2023-10-09T09:33:26;11.07;;;4.28;;
61096;SDS011;46977;50.936;6.908;2023-10-09T09:36:34;9.85;;;4.15;;
61096;SDS011;46977;50.936;6.908;2023-10-09T09:39:37;6.47;;;3.30;;
61096;SDS011;46977;50.936;6.908;2023-10-09T09:42:56;8.05;;;3.83;;
61096;SDS011;46977;50.936;6.908;2023-10-09T09:46:13;8.57;;;4.05;;
61096;SDS011;46977;50.936;6.908;2023-10-09T09:49:16;7.78;;;3.78;;
61096;SDS011;46977;50.936;6.908;2023-10-09T09:52:22;6.00;;;3.13;;
61096;SDS011;46977;50.936;6.908;2023-10-09T09:55:29;9.65;;;3.60;;
61096;SDS011;46977;50.936;6.908;2023-10-09T09:58:35;4.28;;;3.13;;
61096;SDS011;46977;50.936;6.908;2023-10-09T10:01:45;7.55;;;3.92;;
61096;SDS011;46977;50.936;6.908;2023-10-09T10:04:59;8.60;;;3.70;;
61096;SDS011;46977;50.936;6.908;2023-10-09T10:08:06;5.28;;;3.35;;
61096;SDS011;46977;50.936;6.908;2023-10-09T10:14:52;5.13;;;3.00;;
61096;SDS011;46977;50.936;6.908;2023-10-09T10:18:08;6.10;;;3.08;;
61096;SDS011;46977;50.936;6.908;2023-10-09T10:21:12;6.03;;;2.85;;
61096;SDS011;46977;50.936;6.908;2023-10-09T10:31:55;3.58;;;2.60;;
61096;SDS011;46977;50.936;6.908;2023-10-09T10:34:58;4.30;;;3.03;;
61096;SDS011;46977;50.936;6.908;2023-10-09T10:38:21;8.23;;;3.17;;
61096;SDS011;46977;50.936;6.908;2023-10-09T10:41:26;6.00;;;2.72;;
61096;SDS011;46977;50.936;6.908;2023-10-09T10:44:33;6.05;;;3.00;;
61096;SDS011;46977;50.936;6.908;2023-10-09T10:47:36;7.50;;;2.80;;
61096;SDS011;46977;50.936;6.908;2023-10-09T10:50:42;4.82;;;2.85;;
61096;SDS011;46977;50.936;6.908;2023-10-09T10:53:50;6.07;;;2.88;;
61096;SDS011;46977;50.936;6.908;2023-10-09T10:57:00;4.70;;;3.33;;
61096;SDS011;46977;50.936;6.908;2023-10-09T11:00:09;6.60;;;3.05;;
61096;SDS011;46977;50.936;6.908;2023-10-09T11:03:31;6.18;;;3.10;;
61096;SDS011;46977;50.936;6.908;2023-10-09T11:06:52;5.70;;;3.38;;
61096;SDS011;46977;50.936;6.908;2023-10-09T11:09:56;5.80;;;2.80;;
61096;SDS011;46977;50.936;6.908;2023-10-09T11:13:09;11.73;;;7.78;;
61096;SDS011;46977;50.936;6.908;2023-10-09T11:16:12;4.78;;;2.47;;
61096;SDS011;46977;50.936;6.908;2023-10-09T11:19:20;6.55;;;2.88;;
61096;SDS011;46977;50.936;6.908;2023-10-09T11:22:29;6.07;;;2.78;;
61096;SDS011;46977;50.936;6.908;2023-10-09T11:25:38;4.72;;;2.67;;
61096;SDS011;46977;50.936;6.908;2023-10-09T11:28:44;9.18;;;4.30;;
61096;SDS011;46977;50.936;6.908;2023-10-09T11:32:00;7.43;;;2.38;;
61096;SDS011;46977;50.936;6.908;2023-10-09T11:35:09;6.30;;;2.65;;
61096;SDS011;46977;50.936;6.908;2023-10-09T11:38:13;5.70;;;2.80;;
61096;SDS011;46977;50.936;6.908;2023-10-09T11:41:39;6.00;;;2.80;;
61096;SDS011;46977;50.936;6.908;2023-10-09T11:44:44;6.05;;;2.75;;
61096;SDS011;46977;50.936;6.908;2023-10-09T11:47:47;6.93;;;2.70;;
61096;SDS011;46977;50.936;6.908;2023-10-09T11:51:02;5.65;;;2.85;;
61096;SDS011;46977;50.936;6.908;2023-10-09T11:54:04;3.67;;;2.67;;
61096;SDS011;46977;50.936;6.908;2023-10-09T11:57:10;5.28;;;3.17;;
61096;SDS011;46977;50.936;6.908;2023-10-09T12:00:14;5.85;;;2.60;;
61096;SDS011;46977;50.936;6.908;2023-10-09T12:03:31;5.45;;;2.70;;
61096;SDS011;46977;50.936;6.908;2023-10-09T12:06:34;5.75;;;3.20;;
61096;SDS011;46977;50.936;6.908;2023-10-09T12:09:37;4.38;;;2.33;;
61096;SDS011;46977;50.936;6.908;2023-10-09T12:12:39;5.22;;;2.58;;
61096;SDS011;46977;50.936;6.908;2023-10-09T12:15:43;5.18;;;2.95;;
61096;SDS011;46977;50.936;6.908;2023-10-09T12:18:49;6.05;;;3.35;;
61096;SDS011;46977;50.936;6.908;2023-10-09T12:21:55;8.13;;;3.03;;
61096;SDS011;46977;50.936;6.908;2023-10-09T12:24:57;7.53;;;3.05;;
61096;SDS011;46977;50.936;6.908;2023-10-09T12:27:59;5.05;;;2.80;;
61096;SDS011;46977;50.936;6.908;2023-10-09T12:31:05;6.38;;;2.72;;
61096;SDS011;46977;50.936;6.908;2023-10-09T12:34:08;8.35;;;3.40;;
61096;SDS011;46977;50.936;6.908;2023-10-09T12:37:10;4.88;;;3.05;;
61096;SDS011;46977;50.936;6.908;2023-10-09T12:40:14;10.52;;;4.05;;
61096;SDS011;46977;50.936;6.908;2023-10-09T12:43:17;5.55;;;3.35;;
61096;SDS011;46977;50.936;6.908;2023-10-09T12:46:23;8.65;;;3.50;;
61096;SDS011;46977;50.936;6.908;2023-10-09T12:49:27;9.23;;;3.28;;
61096;SDS011;46977;50.936;6.908;2023-10-09T12:52:29;8.85;;;4.15;;
61096;SDS011;46977;50.936;6.908;2023-10-09T12:55:34;6.97;;;3.20;;
61096;SDS011;46977;50.936;6.908;2023-10-09T12:58:37;7.32;;;3.13;;
61096;SDS011;46977;50.936;6.908;2023-10-09T13:01:45;6.97;;;3.40;;
61096;SDS011;46977;50.936;6.908;2023-10-09T13:04:54;8.65;;;3.88;;
61096;SDS011;46977;50.936;6.908;2023-10-09T13:07:56;4.13;;;2.75;;
61096;SDS011;46977;50.936;6.908;2023-10-09T13:11:01;8.55;;;3.53;;
61096;SDS011;46977;50.936;6.908;2023-10-09T13:14:12;8.38;;;3.42;;
61096;SDS011;46977;50.936;6.908;2023-10-09T13:17:21;11.32;;;3.25;;
61096;SDS011;46977;50.936;6.908;2023-10-09T13:20:27;5.63;;;3.63;;
61096;SDS011;46977;50.936;6.908;2023-10-09T13:23:30;5.93;;;3.08;;
61096;SDS011;46977;50.936;6.908;2023-10-09T13:26:40;9.87;;;3.23;;
61096;SDS011;46977;50.936;6.908;2023-10-09T13:29:45;10.77;;;3.88;;
61096;SDS011;46977;50.936;6.908;2023-10-09T13:32:49;6.60;;;3.30;;
61096;SDS011;46977;50.936;6.908;2023-10-09T13:35:51;8.23;;;3.15;;
61096;SDS011;46977;50.936;6.908;2023-10-09T13:38:53;5.93;;;3.30;;
61096;SDS011;46977;50.936;6.908;2023-10-09T13:41:57;7.00;;;3.92;;
61096;SDS011;46977;50.936;6.908;2023-10-09T13:45:05;8.20;;;3.17;;
61096;SDS011;46977;50.936;6.908;2023-10-09T13:48:18;6.18;;;2.80;;
61096;SDS011;46977;50.936;6.908;2023-10-09T13:51:23;6.63;;;2.95;;
61096;SDS011;46977;50.936;6.908;2023-10-09T13:54:31;9.48;;;3.30;;
61096;SDS011;46977;50.936;6.908;2023-10-09T13:57:36;6.53;;;3.03;;
61096;SDS011;46977;50.936;6.908;2023-10-09T14:00:38;6.03;;;2.80;;
61096;SDS011;46977;50.936;6.908;2023-10-09T14:03:47;8.23;;;2.92;;
61096;SDS011;46977;50.936;6.908;2023-10-09T14:06:52;7.03;;;3.05;;
61096;SDS011;46977;50.936;6.908;2023-10-09T14:09:59;7.30;;;2.97;;
61096;SDS011;46977;50.936;6.908;2023-10-09T14:13:19;4.72;;;2.65;;
61096;SDS011;46977;50.936;6.908;2023-10-09T14:16:27;9.52;;;3.53;;
61096;SDS011;46977;50.936;6.908;2023-10-09T14:19:31;6.15;;;3.22;;
61096;SDS011;46977;50.936;6.908;2023-10-09T14:22:35;8.05;;;3.42;;
61096;SDS011;46977;50.936;6.908;2023-10-09T14:25:40;9.70;;;3.97;;
61096;SDS011;46977;50.936;6.908;2023-10-09T14:28:42;11.80;;;4.97;;
61096;SDS011;46977;50.936;6.908;2023-10-09T14:31:45;6.13;;;3.90;;
61096;SDS011;46977;50.936;6.908;2023-10-09T14:35:04;9.43;;;3.55;;
61096;SDS011;46977;50.936;6.908;2023-10-09T14:38:15;6.15;;;3.33;;
61096;SDS011;46977;50.936;6.908;2023-10-09T14:41:21;7.07;;;4.13;;
61096;SDS011;46977;50.936;6.908;2023-10-09T14:44:27;14.07;;;3.88;;
61096;SDS011;46977;50.936;6.908;2023-10-09T14:47:32;10.02;;;4.47;;
61096;SDS011;46977;50.936;6.908;2023-10-09T14:50:36;7.35;;;3.20;;
61096;SDS011;46977;50.936;6.908;2023-10-09T14:53:40;8.45;;;3.83;;
61096;SDS011;46977;50.936;6.908;2023-10-09T14:56:42;8.00;;;3.55;;
61096;SDS011;46977;50.936;6.908;2023-10-09T14:59:45;6.03;;;3.45;;
61096;SDS011;46977;50.936;6.908;2023-10-09T15:02:48;7.57;;;4.10;;
61096;SDS011;46977;50.936;6.908;2023-10-09T15:05:55;6.82;;;3.92;;
61096;SDS011;46977;50.936;6.908;2023-10-09T15:09:01;6.90;;;3.13;;
61096;SDS011;46977;50.936;6.908;2023-10-09T15:12:10;8.00;;;4.70;;
61096;SDS011;46977;50.936;6.908;2023-10-09T15:15:13;6.70;;;3.70;;
61096;SDS011;46977;50.936;6.908;2023-10-09T15:18:16;6.75;;;3.63;;
61096;SDS011;46977;50.936;6.908;2023-10-09T15:21:22;8.50;;;4.13;;
61096;SDS011;46977;50.936;6.908;2023-10-09T15:24:28;6.18;;;4.30;;
61096;SDS011;46977;50.936;6.908;2023-10-09T15:27:32;12.52;;;4.90;;
61096;SDS011;46977;50.936;6.908;2023-10-09T15:30:34;8.82;;;4.88;;
61096;SDS011;46977;50.936;6.908;2023-10-09T15:33:40;8.55;;;4.72;;
61096;SDS011;46977;50.936;6.908;2023-10-09T15:36:44;13.18;;;4.32;;
61096;SDS011;46977;50.936;6.908;2023-10-09T15:39:48;7.97;;;4.63;;
61096;SDS011;46977;50.936;6.908;2023-10-09T15:42:51;12.38;;;5.30;;
61096;SDS011;46977;50.936;6.908;2023-10-09T15:45:59;10.50;;;5.55;;
61096;SDS011;46977;50.936;6.908;2023-10-09T15:49:02;8.98;;;4.20;;
61096;SDS011;46977;50.936;6.908;2023-10-09T15:52:06;9.70;;;5.07;;
61096;SDS011;46977;50.936;6.908;2023-10-09T15:55:10;12.93;;;5.43;;
61096;SDS011;46977;50.936;6.908;2023-10-09T15:58:16;9.27;;;5.15;;
61096;SDS011;46977;50.936;6.908;2023-10-09T16:01:18;11.40;;;6.03;;
61096;SDS011;46977;50.936;6.908;2023-10-09T16:04:20;10.40;;;5.30;;
61096;SDS011;46977;50.936;6.908;2023-10-09T16:07:24;7.22;;;4.40;;
61096;SDS011;46977;50.936;6.908;2023-10-09T16:10:29;11.20;;;5.22;;
61096;SDS011;46977;50.936;6.908;2023-10-09T16:13:36;11.73;;;4.40;;
61096;SDS011;46977;50.936;6.908;2023-10-09T16:16:40;9.13;;;5.28;;
61096;SDS011;46977;50.936;6.908;2023-10-09T16:19:44;6.97;;;4.43;;
61096;SDS011;46977;50.936;6.908;2023-10-09T16:22:48;7.90;;;4.57;;
61096;SDS011;46977;50.936;6.908;2023-10-09T16:25:51;7.25;;;4.10;;
61096;SDS011;46977;50.936;6.908;2023-10-09T16:28:56;10.82;;;5.35;;
61096;SDS011;46977;50.936;6.908;2023-10-09T16:32:02;6.05;;;4.18;;
61096;SDS011;46977;50.936;6.908;2023-10-09T16:35:05;6.90;;;4.20;;
61096;SDS011;46977;50.936;6.908;2023-10-09T16:38:13;15.27;;;5.18;;
61096;SDS011;46977;50.936;6.908;2023-10-09T16:41:15;8.20;;;4.90;;
61096;SDS011;46977;50.936;6.908;2023-10-09T16:44:18;8.63;;;4.90;;
61096;SDS011;46977;50.936;6.908;2023-10-09T16:47:21;8.27;;;4.78;;
61096;SDS011;46977;50.936;6.908;2023-10-09T16:50:24;15.20;;;5.20;;
61096;SDS011;46977;50.936;6.908;2023-10-09T16:53:31;7.63;;;5.22;;
61096;SDS011;46977;50.936;6.908;2023-10-09T16:56:38;6.32;;;4.95;;
61096;SDS011;46977;50.936;6.908;2023-10-09T16:59:44;10.55;;;4.65;;
61096;SDS011;46977;50.936;6.908;2023-10-09T17:02:46;9.27;;;4.70;;
61096;SDS011;46977;50.936;6.908;2023-10-09T17:05:50;6.68;;;4.85;;
61096;SDS011;46977;50.936;6.908;2023-10-09T17:09:02;11.30;;;5.13;;
61096;SDS011;46977;50.936;6.908;2023-10-09T17:12:08;7.28;;;5.10;;
61096;SDS011;46977;50.936;6.908;2023-10-09T17:15:14;10.02;;;4.60;;
61096;SDS011;46977;50.936;6.908;2023-10-09T17:18:20;12.25;;;4.53;;
61096;SDS011;46977;50.936;6.908;2023-10-09T17:21:23;8.98;;;5.15;;
61096;SDS011;46977;50.936;6.908;2023-10-09T17:24:27;8.30;;;4.85;;
61096;SDS011;46977;50.936;6.908;2023-10-09T17:27:29;11.10;;;4.55;;
61096;SDS011;46977;50.936;6.908;2023-10-09T17:30:32;17.38;;;5.65;;
61096;SDS011;46977;50.936;6.908;2023-10-09T17:33:35;9.23;;;5.40;;
61096;SDS011;46977;50.936;6.908;2023-10-09T17:36:41;10.05;;;5.32;;
61096;SDS011;46977;50.936;6.908;2023-10-09T17:39:45;10.40;;;5.10;;
61096;SDS011;46977;50.936;6.908;2023-10-09T17:42:48;9.27;;;5.55;;
61096;SDS011;46977;50.936;6.908;2023-10-09T17:45:52;9.85;;;5.30;;
61096;SDS011;46977;50.936;6.908;2023-10-09T17:48:58;10.63;;;5.38;;
61096;SDS011;46977;50.936;6.908;2023-10-09T17:52:01;9.55;;;5.20;;
61096;SDS011;46977;50.936;6.908;2023-10-09T17:55:05;8.77;;;5.25;;
61096;SDS011;46977;50.936;6.908;2023-10-09T17:58:10;9.30;;;5.82;;
61096;SDS011;46977;50.936;6.908;2023-10-09T18:01:13;10.05;;;5.43;;
61096;SDS011;46977;50.936;6.908;2023-10-09T18:04:17;10.02;;;5.25;;
61096;SDS011;46977;50.936;6.908;2023-10-09T18:07:20;10.48;;;6.43;;
61096;SDS011;46977;50.936;6.908;2023-10-09T18:10:24;7.55;;;4.82;;
61096;SDS011;46977;50.936;6.908;2023-10-09T18:13:28;6.80;;;4.45;;
61096;SDS011;46977;50.936;6.908;2023-10-09T18:16:33;8.13;;;5.20;;
61096;SDS011;46977;50.936;6.908;2023-10-09T18:19:35;11.43;;;6.18;;
61096;SDS011;46977;50.936;6.908;2023-10-09T18:22:40;9.40;;;5.25;;
61096;SDS011;46977;50.936;6.908;2023-10-09T18:25:44;9.52;;;5.47;;
61096;SDS011;46977;50.936;6.908;2023-10-09T18:28:47;8.20;;;5.15;;
61096;SDS011;46977;50.936;6.908;2023-10-09T18:31:50;11.50;;;5.72;;
61096;SDS011;46977;50.936;6.908;2023-10-09T18:34:53;9.48;;;5.45;;
61096;SDS011;46977;50.936;6.908;2023-10-09T18:37:56;9.82;;;6.05;;
61096;SDS011;46977;50.936;6.908;2023-10-09T18:41:13;14.10;;;6.43;;
61096;SDS011;46977;50.936;6.908;2023-10-09T18:45:26;13.10;;;7.18;;
61096;SDS011;46977;50.936;6.908;2023-10-09T18:48:49;12.50;;;6.65;;
61096;SDS011;46977;50.936;6.908;2023-10-09T18:52:23;11.82;;;7.40;;
61096;SDS011;46977;50.936;6.908;2023-10-09T19:05:40;12.90;;;7.30;;
61096;SDS011;46977;50.936;6.908;2023-10-09T19:08:44;11.43;;;6.10;;